Campbell, Virginia
Current Conditions -  °F | °C
As of 12:53 PM on Monday 24 Nov 2014 (Local Time) from KCHO Reporting Station
Few Clouds Few Clouds  
Wind Chill: 68°   Ceiling: Unl
Heat Index: 68°   Visibility: 10mi
Dew Point: 53°   Wind: 17mph
Humidity: 59%   Direction: 200°SSW
Pressure: 29.64"   Gusts: 28mph
Location:  38.0053°N, 78.3345°W
Report Text: KCHO 241753Z 20015G24KT 10SM FEW032 20/12 A2964 RMK AO2 PK WND 19028/1707 SLP035 T02000117 10200 20139 58020
Loading
Personal Weather Stations






























Interactive Weather Map New forecast layout! Learn more

10-Day Weather Forecast

Advertisements
Track Severe Weather on mobile